sensor_id;sensor_type;location;lat;lon;timestamp;P1;durP1;ratioP1;P2;durP2;ratioP2
56457;SDS011;42360;42.918;12.366;2022-12-22T00:01:12;11.85;;;6.63;;
56457;SDS011;42360;42.918;12.366;2022-12-22T00:03:56;9.52;;;6.53;;
56457;SDS011;42360;42.918;12.366;2022-12-22T00:06:40;9.35;;;6.38;;
56457;SDS011;42360;42.918;12.366;2022-12-22T00:09:24;9.05;;;6.85;;
56457;SDS011;42360;42.918;12.366;2022-12-22T00:12:09;8.68;;;7.20;;
56457;SDS011;42360;42.918;12.366;2022-12-22T00:14:54;12.13;;;7.55;;
56457;SDS011;42360;42.918;12.366;2022-12-22T00:17:38;8.40;;;7.18;;
56457;SDS011;42360;42.918;12.366;2022-12-22T00:20:22;10.05;;;7.28;;
56457;SDS011;42360;42.918;12.366;2022-12-22T00:23:10;10.25;;;7.50;;
56457;SDS011;42360;42.918;12.366;2022-12-22T00:25:54;11.45;;;8.02;;
56457;SDS011;42360;42.918;12.366;2022-12-22T00:28:39;8.82;;;6.28;;
56457;SDS011;42360;42.918;12.366;2022-12-22T00:31:23;10.70;;;8.13;;
56457;SDS011;42360;42.918;12.366;2022-12-22T00:34:28;10.35;;;6.93;;
56457;SDS011;42360;42.918;12.366;2022-12-22T00:37:12;13.85;;;7.45;;
56457;SDS011;42360;42.918;12.366;2022-12-22T00:39:56;10.00;;;7.32;;
56457;SDS011;42360;42.918;12.366;2022-12-22T00:42:41;9.82;;;7.38;;
56457;SDS011;42360;42.918;12.366;2022-12-22T00:45:25;11.70;;;8.48;;
56457;SDS011;42360;42.918;12.366;2022-12-22T00:48:19;12.20;;;8.27;;
56457;SDS011;42360;42.918;12.366;2022-12-22T00:51:04;12.65;;;8.48;;
56457;SDS011;42360;42.918;12.366;2022-12-22T00:53:49;13.50;;;8.85;;
56457;SDS011;42360;42.918;12.366;2022-12-22T00:56:33;15.20;;;9.73;;
56457;SDS011;42360;42.918;12.366;2022-12-22T00:59:17;15.30;;;8.77;;
56457;SDS011;42360;42.918;12.366;2022-12-22T01:02:01;13.10;;;9.15;;
56457;SDS011;42360;42.918;12.366;2022-12-22T01:04:45;15.65;;;8.75;;
56457;SDS011;42360;42.918;12.366;2022-12-22T01:07:29;13.13;;;9.63;;
56457;SDS011;42360;42.918;12.366;2022-12-22T01:10:13;11.77;;;8.73;;
56457;SDS011;42360;42.918;12.366;2022-12-22T01:12:58;12.15;;;8.70;;
56457;SDS011;42360;42.918;12.366;2022-12-22T01:15:43;13.45;;;8.45;;
56457;SDS011;42360;42.918;12.366;2022-12-22T01:18:27;10.82;;;8.27;;
56457;SDS011;42360;42.918;12.366;2022-12-22T01:21:11;9.38;;;8.32;;
56457;SDS011;42360;42.918;12.366;2022-12-22T01:23:55;11.15;;;7.90;;
56457;SDS011;42360;42.918;12.366;2022-12-22T01:26:40;14.23;;;8.57;;
56457;SDS011;42360;42.918;12.366;2022-12-22T01:29:24;12.30;;;8.50;;
56457;SDS011;42360;42.918;12.366;2022-12-22T01:32:10;10.45;;;8.82;;
56457;SDS011;42360;42.918;12.366;2022-12-22T01:34:56;13.43;;;8.07;;
56457;SDS011;42360;42.918;12.366;2022-12-22T01:37:41;13.52;;;8.65;;
56457;SDS011;42360;42.918;12.366;2022-12-22T01:40:24;12.00;;;8.65;;
56457;SDS011;42360;42.918;12.366;2022-12-22T01:43:19;9.40;;;7.72;;
56457;SDS011;42360;42.918;12.366;2022-12-22T01:46:22;10.68;;;7.72;;
56457;SDS011;42360;42.918;12.366;2022-12-22T01:49:34;11.10;;;7.75;;
56457;SDS011;42360;42.918;12.366;2022-12-22T01:52:24;9.27;;;6.75;;
56457;SDS011;42360;42.918;12.366;2022-12-22T01:55:13;10.52;;;7.68;;
56457;SDS011;42360;42.918;12.366;2022-12-22T01:58:00;10.85;;;8.02;;
56457;SDS011;42360;42.918;12.366;2022-12-22T02:00:44;9.50;;;7.47;;
56457;SDS011;42360;42.918;12.366;2022-12-22T02:03:29;10.13;;;6.90;;
56457;SDS011;42360;42.918;12.366;2022-12-22T02:18:39;9.30;;;6.60;;
56457;SDS011;42360;42.918;12.366;2022-12-22T02:21:26;11.48;;;7.72;;
56457;SDS011;42360;42.918;12.366;2022-12-22T02:24:27;9.27;;;7.60;;
56457;SDS011;42360;42.918;12.366;2022-12-22T02:27:20;9.60;;;7.30;;
56457;SDS011;42360;42.918;12.366;2022-12-22T02:30:05;9.23;;;6.95;;
56457;SDS011;42360;42.918;12.366;2022-12-22T02:32:50;11.52;;;7.15;;
56457;SDS011;42360;42.918;12.366;2022-12-22T02:35:56;11.20;;;5.95;;
56457;SDS011;42360;42.918;12.366;2022-12-22T02:48:33;4.93;;;3.42;;
56457;SDS011;42360;42.918;12.366;2022-12-22T02:51:22;6.28;;;4.40;;
56457;SDS011;42360;42.918;12.366;2022-12-22T02:54:08;4.55;;;3.92;;
56457;SDS011;42360;42.918;12.366;2022-12-22T02:56:52;8.73;;;4.93;;
56457;SDS011;42360;42.918;12.366;2022-12-22T02:59:36;5.28;;;3.58;;
56457;SDS011;42360;42.918;12.366;2022-12-22T03:02:20;6.50;;;4.38;;
56457;SDS011;42360;42.918;12.366;2022-12-22T03:05:04;5.30;;;3.97;;
56457;SDS011;42360;42.918;12.366;2022-12-22T03:07:48;4.60;;;4.13;;
56457;SDS011;42360;42.918;12.366;2022-12-22T03:10:32;5.13;;;3.50;;
56457;SDS011;42360;42.918;12.366;2022-12-22T03:13:16;5.00;;;3.90;;
56457;SDS011;42360;42.918;12.366;2022-12-22T03:16:00;6.70;;;3.45;;
56457;SDS011;42360;42.918;12.366;2022-12-22T03:18:44;5.20;;;3.78;;
56457;SDS011;42360;42.918;12.366;2022-12-22T03:21:28;7.43;;;4.30;;
56457;SDS011;42360;42.918;12.366;2022-12-22T03:24:12;4.78;;;4.28;;
56457;SDS011;42360;42.918;12.366;2022-12-22T03:26:56;4.47;;;3.65;;
56457;SDS011;42360;42.918;12.366;2022-12-22T03:29:21;4.47;;;4.03;;
56457;SDS011;42360;42.918;12.366;2022-12-22T03:31:47;5.07;;;4.00;;
56457;SDS011;42360;42.918;12.366;2022-12-22T03:34:12;5.95;;;4.45;;
56457;SDS011;42360;42.918;12.366;2022-12-22T03:36:38;5.00;;;3.78;;
56457;SDS011;42360;42.918;12.366;2022-12-22T03:39:03;4.93;;;4.40;;
56457;SDS011;42360;42.918;12.366;2022-12-22T03:41:29;5.40;;;4.07;;
56457;SDS011;42360;42.918;12.366;2022-12-22T03:44:13;9.60;;;4.32;;
56457;SDS011;42360;42.918;12.366;2022-12-22T03:46:57;3.08;;;2.78;;
56457;SDS011;42360;42.918;12.366;2022-12-22T03:49:22;7.60;;;4.03;;
56457;SDS011;42360;42.918;12.366;2022-12-22T03:51:50;6.07;;;4.38;;
56457;SDS011;42360;42.918;12.366;2022-12-22T03:54:21;8.45;;;4.57;;
56457;SDS011;42360;42.918;12.366;2022-12-22T03:56:48;6.30;;;4.20;;
56457;SDS011;42360;42.918;12.366;2022-12-22T03:59:14;5.88;;;4.10;;
56457;SDS011;42360;42.918;12.366;2022-12-22T04:01:43;4.28;;;3.88;;
56457;SDS011;42360;42.918;12.366;2022-12-22T04:04:18;6.88;;;4.13;;
56457;SDS011;42360;42.918;12.366;2022-12-22T04:06:45;6.75;;;4.65;;
56457;SDS011;42360;42.918;12.366;2022-12-22T04:09:11;8.80;;;4.55;;
56457;SDS011;42360;42.918;12.366;2022-12-22T04:11:37;7.60;;;5.50;;
56457;SDS011;42360;42.918;12.366;2022-12-22T04:14:21;7.10;;;5.28;;
56457;SDS011;42360;42.918;12.366;2022-12-22T04:16:47;8.20;;;5.57;;
56457;SDS011;42360;42.918;12.366;2022-12-22T04:19:13;6.97;;;5.20;;
56457;SDS011;42360;42.918;12.366;2022-12-22T04:21:38;6.85;;;5.55;;
56457;SDS011;42360;42.918;12.366;2022-12-22T04:24:04;8.95;;;6.07;;
56457;SDS011;42360;42.918;12.366;2022-12-22T04:26:30;7.70;;;5.72;;
56457;SDS011;42360;42.918;12.366;2022-12-22T04:28:55;8.98;;;6.22;;
56457;SDS011;42360;42.918;12.366;2022-12-22T04:31:21;8.75;;;6.45;;
56457;SDS011;42360;42.918;12.366;2022-12-22T04:33:47;8.80;;;6.68;;
56457;SDS011;42360;42.918;12.366;2022-12-22T04:36:13;11.52;;;7.15;;
56457;SDS011;42360;42.918;12.366;2022-12-22T04:38:38;8.02;;;6.15;;
56457;SDS011;42360;42.918;12.366;2022-12-22T04:41:04;10.38;;;7.63;;
56457;SDS011;42360;42.918;12.366;2022-12-22T04:43:30;12.45;;;8.52;;
56457;SDS011;42360;42.918;12.366;2022-12-22T04:45:56;12.07;;;8.30;;
56457;SDS011;42360;42.918;12.366;2022-12-22T04:48:22;9.98;;;7.13;;
56457;SDS011;42360;42.918;12.366;2022-12-22T04:50:49;11.48;;;7.35;;
56457;SDS011;42360;42.918;12.366;2022-12-22T04:53:15;11.18;;;7.43;;
56457;SDS011;42360;42.918;12.366;2022-12-22T04:55:47;13.13;;;7.68;;
56457;SDS011;42360;42.918;12.366;2022-12-22T04:58:19;10.68;;;7.15;;
56457;SDS011;42360;42.918;12.366;2022-12-22T05:00:44;9.38;;;6.10;;
56457;SDS011;42360;42.918;12.366;2022-12-22T05:03:10;10.85;;;6.43;;
56457;SDS011;42360;42.918;12.366;2022-12-22T05:05:36;9.10;;;5.88;;
56457;SDS011;42360;42.918;12.366;2022-12-22T05:08:02;11.15;;;7.40;;
56457;SDS011;42360;42.918;12.366;2022-12-22T05:10:29;11.43;;;8.02;;
56457;SDS011;42360;42.918;12.366;2022-12-22T05:12:55;9.93;;;6.88;;
56457;SDS011;42360;42.918;12.366;2022-12-22T05:15:22;12.35;;;7.90;;
56457;SDS011;42360;42.918;12.366;2022-12-22T05:17:49;8.85;;;6.55;;
56457;SDS011;42360;42.918;12.366;2022-12-22T05:20:15;10.90;;;7.13;;
56457;SDS011;42360;42.918;12.366;2022-12-22T05:22:41;12.38;;;8.35;;
56457;SDS011;42360;42.918;12.366;2022-12-22T05:25:06;9.50;;;7.80;;
56457;SDS011;42360;42.918;12.366;2022-12-22T05:27:32;12.10;;;8.75;;
56457;SDS011;42360;42.918;12.366;2022-12-22T05:29:58;10.45;;;7.60;;
56457;SDS011;42360;42.918;12.366;2022-12-22T05:32:23;9.80;;;7.47;;
56457;SDS011;42360;42.918;12.366;2022-12-22T05:34:49;14.70;;;9.00;;
56457;SDS011;42360;42.918;12.366;2022-12-22T05:37:15;10.65;;;7.75;;
56457;SDS011;42360;42.918;12.366;2022-12-22T05:39:40;14.15;;;8.18;;
56457;SDS011;42360;42.918;12.366;2022-12-22T05:42:06;11.48;;;8.77;;
56457;SDS011;42360;42.918;12.366;2022-12-22T05:44:31;14.07;;;8.82;;
56457;SDS011;42360;42.918;12.366;2022-12-22T05:46:57;12.27;;;8.63;;
56457;SDS011;42360;42.918;12.366;2022-12-22T05:49:22;11.85;;;9.50;;
56457;SDS011;42360;42.918;12.366;2022-12-22T05:51:48;13.40;;;9.50;;
56457;SDS011;42360;42.918;12.366;2022-12-22T05:54:14;12.27;;;9.82;;
56457;SDS011;42360;42.918;12.366;2022-12-22T05:56:39;13.68;;;9.27;;
56457;SDS011;42360;42.918;12.366;2022-12-22T05:59:05;11.30;;;8.80;;
56457;SDS011;42360;42.918;12.366;2022-12-22T06:01:30;13.15;;;8.75;;
56457;SDS011;42360;42.918;12.366;2022-12-22T06:03:56;12.77;;;8.98;;
56457;SDS011;42360;42.918;12.366;2022-12-22T06:06:22;10.98;;;8.35;;
56457;SDS011;42360;42.918;12.366;2022-12-22T06:08:47;12.38;;;9.15;;
56457;SDS011;42360;42.918;12.366;2022-12-22T06:11:13;12.15;;;9.07;;
56457;SDS011;42360;42.918;12.366;2022-12-22T06:13:42;11.68;;;8.55;;
56457;SDS011;42360;42.918;12.366;2022-12-22T06:16:08;13.63;;;8.32;;
56457;SDS011;42360;42.918;12.366;2022-12-22T06:18:34;10.63;;;8.70;;
56457;SDS011;42360;42.918;12.366;2022-12-22T06:21:00;11.20;;;8.30;;
56457;SDS011;42360;42.918;12.366;2022-12-22T06:23:26;13.50;;;8.95;;
56457;SDS011;42360;42.918;12.366;2022-12-22T06:25:58;12.73;;;8.25;;
56457;SDS011;42360;42.918;12.366;2022-12-22T06:28:25;12.07;;;8.60;;
56457;SDS011;42360;42.918;12.366;2022-12-22T06:30:51;9.13;;;7.60;;
56457;SDS011;42360;42.918;12.366;2022-12-22T06:33:17;14.30;;;8.27;;
56457;SDS011;42360;42.918;12.366;2022-12-22T06:35:42;11.95;;;8.35;;
56457;SDS011;42360;42.918;12.366;2022-12-22T06:38:08;10.35;;;7.65;;
56457;SDS011;42360;42.918;12.366;2022-12-22T06:40:34;11.73;;;7.65;;
56457;SDS011;42360;42.918;12.366;2022-12-22T06:42:59;12.25;;;8.57;;
56457;SDS011;42360;42.918;12.366;2022-12-22T06:45:38;11.57;;;8.50;;
56457;SDS011;42360;42.918;12.366;2022-12-22T06:48:05;10.87;;;8.30;;
56457;SDS011;42360;42.918;12.366;2022-12-22T06:50:31;11.98;;;8.48;;
56457;SDS011;42360;42.918;12.366;2022-12-22T06:52:57;11.05;;;7.70;;
56457;SDS011;42360;42.918;12.366;2022-12-22T06:55:22;9.30;;;7.68;;
56457;SDS011;42360;42.918;12.366;2022-12-22T06:57:48;8.57;;;7.13;;
56457;SDS011;42360;42.918;12.366;2022-12-22T07:00:13;8.55;;;6.85;;
56457;SDS011;42360;42.918;12.366;2022-12-22T07:02:39;8.50;;;6.68;;
56457;SDS011;42360;42.918;12.366;2022-12-22T07:05:05;12.70;;;7.80;;
56457;SDS011;42360;42.918;12.366;2022-12-22T07:07:31;7.60;;;6.88;;
56457;SDS011;42360;42.918;12.366;2022-12-22T07:09:56;10.82;;;7.28;;
56457;SDS011;42360;42.918;12.366;2022-12-22T07:12:22;11.10;;;7.95;;
56457;SDS011;42360;42.918;12.366;2022-12-22T07:14:48;11.95;;;9.07;;
56457;SDS011;42360;42.918;12.366;2022-12-22T07:17:14;18.48;;;15.30;;
56457;SDS011;42360;42.918;12.366;2022-12-22T07:19:39;20.40;;;18.15;;
56457;SDS011;42360;42.918;12.366;2022-12-22T07:22:05;110.20;;;59.22;;
56457;SDS011;42360;42.918;12.366;2022-12-22T07:24:30;54.65;;;31.58;;
56457;SDS011;42360;42.918;12.366;2022-12-22T07:26:57;25.27;;;16.77;;
56457;SDS011;42360;42.918;12.366;2022-12-22T07:29:22;16.40;;;10.88;;
56457;SDS011;42360;42.918;12.366;2022-12-22T07:31:48;13.80;;;10.18;;
56457;SDS011;42360;42.918;12.366;2022-12-22T07:34:13;13.45;;;9.18;;
56457;SDS011;42360;42.918;12.366;2022-12-22T07:36:39;11.13;;;8.45;;
56457;SDS011;42360;42.918;12.366;2022-12-22T07:39:05;12.00;;;8.13;;
56457;SDS011;42360;42.918;12.366;2022-12-22T07:41:32;9.10;;;7.85;;
56457;SDS011;42360;42.918;12.366;2022-12-22T07:44:17;13.35;;;10.00;;
56457;SDS011;42360;42.918;12.366;2022-12-22T07:46:42;13.50;;;10.23;;
56457;SDS011;42360;42.918;12.366;2022-12-22T07:49:09;15.20;;;11.82;;
56457;SDS011;42360;42.918;12.366;2022-12-22T07:51:54;18.38;;;11.75;;
56457;SDS011;42360;42.918;12.366;2022-12-22T07:54:21;15.27;;;11.93;;
56457;SDS011;42360;42.918;12.366;2022-12-22T07:56:47;16.27;;;12.80;;
56457;SDS011;42360;42.918;12.366;2022-12-22T07:59:12;17.00;;;12.32;;
56457;SDS011;42360;42.918;12.366;2022-12-22T08:01:38;19.02;;;12.98;;
56457;SDS011;42360;42.918;12.366;2022-12-22T08:04:05;18.63;;;13.45;;
56457;SDS011;42360;42.918;12.366;2022-12-22T08:06:32;18.10;;;13.00;;
56457;SDS011;42360;42.918;12.366;2022-12-22T08:08:58;14.38;;;12.85;;
56457;SDS011;42360;42.918;12.366;2022-12-22T08:11:24;18.10;;;12.52;;
56457;SDS011;42360;42.918;12.366;2022-12-22T08:13:50;17.20;;;12.27;;
56457;SDS011;42360;42.918;12.366;2022-12-22T08:16:16;14.00;;;10.05;;
56457;SDS011;42360;42.918;12.366;2022-12-22T08:18:41;13.18;;;10.15;;
56457;SDS011;42360;42.918;12.366;2022-12-22T08:21:08;13.55;;;10.00;;
56457;SDS011;42360;42.918;12.366;2022-12-22T08:23:34;12.55;;;9.73;;
56457;SDS011;42360;42.918;12.366;2022-12-22T08:26:02;11.75;;;8.77;;
56457;SDS011;42360;42.918;12.366;2022-12-22T08:28:31;13.57;;;9.23;;
56457;SDS011;42360;42.918;12.366;2022-12-22T08:30:58;15.48;;;10.20;;
56457;SDS011;42360;42.918;12.366;2022-12-22T08:33:24;13.27;;;9.23;;
56457;SDS011;42360;42.918;12.366;2022-12-22T08:35:50;15.93;;;9.95;;
56457;SDS011;42360;42.918;12.366;2022-12-22T08:38:16;16.02;;;12.27;;
56457;SDS011;42360;42.918;12.366;2022-12-22T08:40:41;18.90;;;10.38;;
56457;SDS011;42360;42.918;12.366;2022-12-22T08:43:08;14.73;;;10.88;;
56457;SDS011;42360;42.918;12.366;2022-12-22T08:45:34;14.52;;;10.23;;
56457;SDS011;42360;42.918;12.366;2022-12-22T08:47:59;15.68;;;10.48;;
56457;SDS011;42360;42.918;12.366;2022-12-22T08:50:25;15.50;;;11.10;;
56457;SDS011;42360;42.918;12.366;2022-12-22T08:52:51;13.35;;;10.70;;
56457;SDS011;42360;42.918;12.366;2022-12-22T08:55:16;14.27;;;9.48;;
56457;SDS011;42360;42.918;12.366;2022-12-22T08:57:42;14.27;;;11.43;;
56457;SDS011;42360;42.918;12.366;2022-12-22T09:00:08;15.02;;;10.60;;
56457;SDS011;42360;42.918;12.366;2022-12-22T09:02:35;15.63;;;10.63;;
56457;SDS011;42360;42.918;12.366;2022-12-22T09:05:01;18.65;;;12.13;;
56457;SDS011;42360;42.918;12.366;2022-12-22T09:07:26;15.90;;;11.45;;
56457;SDS011;42360;42.918;12.366;2022-12-22T09:09:52;16.55;;;12.45;;
56457;SDS011;42360;42.918;12.366;2022-12-22T09:12:18;14.40;;;11.20;;
56457;SDS011;42360;42.918;12.366;2022-12-22T09:14:44;19.17;;;12.35;;
56457;SDS011;42360;42.918;12.366;2022-12-22T09:17:09;15.23;;;11.63;;
56457;SDS011;42360;42.918;12.366;2022-12-22T09:19:35;14.73;;;11.52;;
56457;SDS011;42360;42.918;12.366;2022-12-22T09:22:01;18.60;;;13.68;;
56457;SDS011;42360;42.918;12.366;2022-12-22T09:24:26;19.90;;;13.55;;
56457;SDS011;42360;42.918;12.366;2022-12-22T09:26:52;18.77;;;13.15;;
56457;SDS011;42360;42.918;12.366;2022-12-22T09:29:17;24.33;;;13.75;;
56457;SDS011;42360;42.918;12.366;2022-12-22T09:31:43;22.50;;;15.10;;
56457;SDS011;42360;42.918;12.366;2022-12-22T09:34:09;17.98;;;13.77;;
56457;SDS011;42360;42.918;12.366;2022-12-22T09:36:35;20.52;;;14.15;;
56457;SDS011;42360;42.918;12.366;2022-12-22T09:39:05;19.55;;;12.73;;
56457;SDS011;42360;42.918;12.366;2022-12-22T09:44:21;16.13;;;10.98;;
56457;SDS011;42360;42.918;12.366;2022-12-22T09:46:49;19.05;;;13.57;;
56457;SDS011;42360;42.918;12.366;2022-12-22T09:49:17;18.38;;;13.20;;
56457;SDS011;42360;42.918;12.366;2022-12-22T09:51:45;22.35;;;18.35;;
56457;SDS011;42360;42.918;12.366;2022-12-22T09:54:13;23.75;;;16.40;;
56457;SDS011;42360;42.918;12.366;2022-12-22T09:56:40;17.60;;;12.85;;
56457;SDS011;42360;42.918;12.366;2022-12-22T09:59:13;14.75;;;12.23;;
56457;SDS011;42360;42.918;12.366;2022-12-22T10:04:38;13.82;;;9.85;;
56457;SDS011;42360;42.918;12.366;2022-12-22T10:09:44;18.13;;;13.52;;
56457;SDS011;42360;42.918;12.366;2022-12-22T10:12:12;21.23;;;14.57;;
56457;SDS011;42360;42.918;12.366;2022-12-22T10:14:43;30.95;;;21.02;;
56457;SDS011;42360;42.918;12.366;2022-12-22T10:17:28;18.08;;;14.50;;
56457;SDS011;42360;42.918;12.366;2022-12-22T10:20:07;22.90;;;14.27;;
56457;SDS011;42360;42.918;12.366;2022-12-22T10:28:36;17.35;;;12.93;;
56457;SDS011;42360;42.918;12.366;2022-12-22T10:31:13;15.30;;;12.27;;
56457;SDS011;42360;42.918;12.366;2022-12-22T10:33:41;15.98;;;12.60;;
56457;SDS011;42360;42.918;12.366;2022-12-22T10:36:08;17.17;;;11.23;;
56457;SDS011;42360;42.918;12.366;2022-12-22T10:38:38;14.35;;;11.07;;
56457;SDS011;42360;42.918;12.366;2022-12-22T10:46:03;28.92;;;19.42;;
56457;SDS011;42360;42.918;12.366;2022-12-22T10:48:33;19.67;;;13.60;;
56457;SDS011;42360;42.918;12.366;2022-12-22T10:51:00;31.60;;;21.85;;
56457;SDS011;42360;42.918;12.366;2022-12-22T10:53:36;21.75;;;14.90;;
56457;SDS011;42360;42.918;12.366;2022-12-22T10:59:03;29.85;;;21.55;;
56457;SDS011;42360;42.918;12.366;2022-12-22T11:01:37;18.77;;;12.82;;
56457;SDS011;42360;42.918;12.366;2022-12-22T11:04:16;12.48;;;9.38;;
56457;SDS011;42360;42.918;12.366;2022-12-22T11:06:46;12.68;;;10.13;;
56457;SDS011;42360;42.918;12.366;2022-12-22T11:09:12;14.20;;;9.02;;
56457;SDS011;42360;42.918;12.366;2022-12-22T11:11:44;13.73;;;9.55;;
56457;SDS011;42360;42.918;12.366;2022-12-22T11:14:26;14.10;;;8.43;;
56457;SDS011;42360;42.918;12.366;2022-12-22T11:22:45;10.57;;;8.73;;
56457;SDS011;42360;42.918;12.366;2022-12-22T11:30:19;13.40;;;10.32;;
56457;SDS011;42360;42.918;12.366;2022-12-22T11:32:55;11.40;;;8.30;;
56457;SDS011;42360;42.918;12.366;2022-12-22T11:38:36;7.97;;;6.18;;
56457;SDS011;42360;42.918;12.366;2022-12-22T11:41:17;9.23;;;7.10;;
56457;SDS011;42360;42.918;12.366;2022-12-22T11:49:17;8.77;;;6.93;;
56457;SDS011;42360;42.918;12.366;2022-12-22T11:52:06;8.48;;;6.57;;
56457;SDS011;42360;42.918;12.366;2022-12-22T11:54:48;7.68;;;5.53;;
56457;SDS011;42360;42.918;12.366;2022-12-22T11:57:46;12.13;;;7.32;;
56457;SDS011;42360;42.918;12.366;2022-12-22T12:00:17;7.03;;;4.65;;
56457;SDS011;42360;42.918;12.366;2022-12-22T12:14:35;6.38;;;5.15;;
56457;SDS011;42360;42.918;12.366;2022-12-22T12:19:44;12.48;;;8.63;;
56457;SDS011;42360;42.918;12.366;2022-12-22T12:25:37;15.95;;;11.43;;
56457;SDS011;42360;42.918;12.366;2022-12-22T12:28:10;11.00;;;6.97;;
56457;SDS011;42360;42.918;12.366;2022-12-22T12:33:17;16.45;;;12.05;;
56457;SDS011;42360;42.918;12.366;2022-12-22T12:36:01;15.90;;;11.27;;
56457;SDS011;42360;42.918;12.366;2022-12-22T12:44:32;16.67;;;11.05;;
56457;SDS011;42360;42.918;12.366;2022-12-22T12:52:25;6.75;;;5.50;;
56457;SDS011;42360;42.918;12.366;2022-12-22T12:57:45;5.15;;;3.85;;
56457;SDS011;42360;42.918;12.366;2022-12-22T13:02:56;3.80;;;3.30;;
56457;SDS011;42360;42.918;12.366;2022-12-22T13:05:29;4.72;;;3.80;;
56457;SDS011;42360;42.918;12.366;2022-12-22T13:10:45;4.28;;;3.60;;
56457;SDS011;42360;42.918;12.366;2022-12-22T13:13:12;4.18;;;3.53;;
56457;SDS011;42360;42.918;12.366;2022-12-22T13:20:56;5.38;;;3.92;;
56457;SDS011;42360;42.918;12.366;2022-12-22T13:23:42;5.10;;;3.47;;
56457;SDS011;42360;42.918;12.366;2022-12-22T13:26:23;7.55;;;5.25;;
56457;SDS011;42360;42.918;12.366;2022-12-22T13:28:52;11.00;;;7.93;;
56457;SDS011;42360;42.918;12.366;2022-12-22T13:31:22;10.38;;;6.38;;
56457;SDS011;42360;42.918;12.366;2022-12-22T13:34:06;8.95;;;5.88;;
56457;SDS011;42360;42.918;12.366;2022-12-22T13:36:44;10.68;;;6.88;;
56457;SDS011;42360;42.918;12.366;2022-12-22T13:39:13;5.78;;;4.32;;
56457;SDS011;42360;42.918;12.366;2022-12-22T13:41:46;7.47;;;5.07;;
56457;SDS011;42360;42.918;12.366;2022-12-22T13:44:14;7.43;;;4.18;;
56457;SDS011;42360;42.918;12.366;2022-12-22T13:46:42;12.73;;;4.97;;
56457;SDS011;42360;42.918;12.366;2022-12-22T13:49:09;3.58;;;3.08;;
56457;SDS011;42360;42.918;12.366;2022-12-22T13:51:37;4.47;;;2.40;;
56457;SDS011;42360;42.918;12.366;2022-12-22T13:57:02;10.73;;;2.58;;
56457;SDS011;42360;42.918;12.366;2022-12-22T14:04:32;1.50;;;1.40;;
56457;SDS011;42360;42.918;12.366;2022-12-22T14:07:08;2.17;;;2.03;;
56457;SDS011;42360;42.918;12.366;2022-12-22T14:09:44;6.85;;;3.95;;
56457;SDS011;42360;42.918;12.366;2022-12-22T14:12:14;3.33;;;3.03;;
56457;SDS011;42360;42.918;12.366;2022-12-22T14:14:45;4.05;;;2.85;;
56457;SDS011;42360;42.918;12.366;2022-12-22T14:19:50;2.53;;;2.28;;
56457;SDS011;42360;42.918;12.366;2022-12-22T14:22:39;5.68;;;3.22;;
56457;SDS011;42360;42.918;12.366;2022-12-22T14:25:20;2.85;;;2.50;;
56457;SDS011;42360;42.918;12.366;2022-12-22T14:27:50;1.53;;;1.43;;
56457;SDS011;42360;42.918;12.366;2022-12-22T14:30:19;1.90;;;1.50;;
56457;SDS011;42360;42.918;12.366;2022-12-22T14:32:56;2.97;;;2.75;;
56457;SDS011;42360;42.918;12.366;2022-12-22T14:35:23;2.17;;;1.73;;
56457;SDS011;42360;42.918;12.366;2022-12-22T14:37:52;5.20;;;3.58;;
56457;SDS011;42360;42.918;12.366;2022-12-22T14:40:32;3.17;;;2.50;;
56457;SDS011;42360;42.918;12.366;2022-12-22T14:43:03;2.05;;;1.85;;
56457;SDS011;42360;42.918;12.366;2022-12-22T14:45:30;2.63;;;2.15;;
56457;SDS011;42360;42.918;12.366;2022-12-22T14:47:55;3.50;;;2.35;;
56457;SDS011;42360;42.918;12.366;2022-12-22T14:50:23;5.07;;;2.65;;
56457;SDS011;42360;42.918;12.366;2022-12-22T14:58:11;5.80;;;3.38;;
56457;SDS011;42360;42.918;12.366;2022-12-22T15:00:41;3.17;;;2.60;;
56457;SDS011;42360;42.918;12.366;2022-12-22T15:03:29;3.03;;;1.75;;
56457;SDS011;42360;42.918;12.366;2022-12-22T15:06:19;2.33;;;2.15;;
56457;SDS011;42360;42.918;12.366;2022-12-22T15:08:51;3.88;;;3.50;;
56457;SDS011;42360;42.918;12.366;2022-12-22T15:11:39;5.70;;;3.28;;
56457;SDS011;42360;42.918;12.366;2022-12-22T15:14:16;2.63;;;2.42;;
56457;SDS011;42360;42.918;12.366;2022-12-22T15:16:43;2.97;;;2.60;;
56457;SDS011;42360;42.918;12.366;2022-12-22T15:19:13;7.72;;;3.65;;
56457;SDS011;42360;42.918;12.366;2022-12-22T15:21:40;5.72;;;3.90;;
56457;SDS011;42360;42.918;12.366;2022-12-22T15:24:10;6.18;;;3.80;;
56457;SDS011;42360;42.918;12.366;2022-12-22T15:26:36;5.32;;;3.80;;
56457;SDS011;42360;42.918;12.366;2022-12-22T15:29:02;4.28;;;3.08;;
56457;SDS011;42360;42.918;12.366;2022-12-22T15:31:28;5.70;;;3.75;;
56457;SDS011;42360;42.918;12.366;2022-12-22T15:33:53;5.32;;;3.38;;
56457;SDS011;42360;42.918;12.366;2022-12-22T15:36:23;5.25;;;3.28;;
56457;SDS011;42360;42.918;12.366;2022-12-22T15:38:48;5.20;;;4.28;;
56457;SDS011;42360;42.918;12.366;2022-12-22T15:41:15;3.67;;;2.97;;
56457;SDS011;42360;42.918;12.366;2022-12-22T15:43:40;4.57;;;3.72;;
56457;SDS011;42360;42.918;12.366;2022-12-22T15:46:06;4.15;;;2.97;;
56457;SDS011;42360;42.918;12.366;2022-12-22T15:48:32;6.05;;;4.72;;
56457;SDS011;42360;42.918;12.366;2022-12-22T15:51:00;9.93;;;5.18;;
56457;SDS011;42360;42.918;12.366;2022-12-22T15:53:27;10.63;;;5.28;;
56457;SDS011;42360;42.918;12.366;2022-12-22T15:55:53;6.68;;;5.13;;
56457;SDS011;42360;42.918;12.366;2022-12-22T15:58:23;7.70;;;5.47;;
56457;SDS011;42360;42.918;12.366;2022-12-22T16:00:51;7.88;;;5.70;;
56457;SDS011;42360;42.918;12.366;2022-12-22T16:03:17;5.65;;;4.93;;
56457;SDS011;42360;42.918;12.366;2022-12-22T16:05:42;6.95;;;5.47;;
56457;SDS011;42360;42.918;12.366;2022-12-22T16:08:13;6.38;;;5.55;;
56457;SDS011;42360;42.918;12.366;2022-12-22T16:10:41;8.38;;;6.40;;
56457;SDS011;42360;42.918;12.366;2022-12-22T16:13:10;9.43;;;6.03;;
56457;SDS011;42360;42.918;12.366;2022-12-22T16:15:36;12.88;;;6.95;;
56457;SDS011;42360;42.918;12.366;2022-12-22T16:18:02;9.45;;;6.50;;
56457;SDS011;42360;42.918;12.366;2022-12-22T16:20:29;10.35;;;7.20;;
56457;SDS011;42360;42.918;12.366;2022-12-22T16:22:56;8.48;;;7.18;;
56457;SDS011;42360;42.918;12.366;2022-12-22T16:25:24;9.20;;;6.85;;
56457;SDS011;42360;42.918;12.366;2022-12-22T16:27:53;16.27;;;11.23;;
56457;SDS011;42360;42.918;12.366;2022-12-22T16:30:19;11.30;;;8.48;;
56457;SDS011;42360;42.918;12.366;2022-12-22T16:32:47;11.55;;;8.35;;
56457;SDS011;42360;42.918;12.366;2022-12-22T16:35:14;12.85;;;9.77;;
56457;SDS011;42360;42.918;12.366;2022-12-22T16:37:41;9.27;;;7.78;;
56457;SDS011;42360;42.918;12.366;2022-12-22T16:40:08;9.80;;;6.88;;
56457;SDS011;42360;42.918;12.366;2022-12-22T16:42:34;10.80;;;8.40;;
56457;SDS011;42360;42.918;12.366;2022-12-22T16:44:59;14.63;;;10.95;;
56457;SDS011;42360;42.918;12.366;2022-12-22T16:47:31;11.10;;;7.82;;
56457;SDS011;42360;42.918;12.366;2022-12-22T16:50:01;11.55;;;8.35;;
56457;SDS011;42360;42.918;12.366;2022-12-22T16:52:35;18.65;;;13.15;;
56457;SDS011;42360;42.918;12.366;2022-12-22T16:55:05;14.13;;;10.68;;
56457;SDS011;42360;42.918;12.366;2022-12-22T16:57:38;27.58;;;15.65;;